sensor_id;sensor_type;location;lat;lon;timestamp;P1;durP1;ratioP1;P2;durP2;ratioP2
51286;SDS011;37364;46.974;18.916;2024-02-26T00:00:59;83.43;;;48.92;;
51286;SDS011;37364;46.974;18.916;2024-02-26T00:03:29;73.45;;;45.03;;
51286;SDS011;37364;46.974;18.916;2024-02-26T00:06:02;76.25;;;47.20;;
51286;SDS011;37364;46.974;18.916;2024-02-26T00:08:32;71.18;;;44.42;;
51286;SDS011;37364;46.974;18.916;2024-02-26T00:11:05;75.35;;;45.70;;
51286;SDS011;37364;46.974;18.916;2024-02-26T00:13:35;62.08;;;41.55;;
51286;SDS011;37364;46.974;18.916;2024-02-26T00:16:05;70.82;;;43.20;;
51286;SDS011;37364;46.974;18.916;2024-02-26T00:18:35;67.88;;;38.85;;
51286;SDS011;37364;46.974;18.916;2024-02-26T00:21:06;59.22;;;37.50;;
51286;SDS011;37364;46.974;18.916;2024-02-26T00:23:36;61.30;;;38.55;;
51286;SDS011;37364;46.974;18.916;2024-02-26T00:26:08;60.30;;;37.95;;
51286;SDS011;37364;46.974;18.916;2024-02-26T00:28:38;60.25;;;38.05;;
51286;SDS011;37364;46.974;18.916;2024-02-26T00:31:08;58.85;;;34.65;;
51286;SDS011;37364;46.974;18.916;2024-02-26T00:33:38;56.47;;;36.13;;
51286;SDS011;37364;46.974;18.916;2024-02-26T00:36:08;51.92;;;35.08;;
51286;SDS011;37364;46.974;18.916;2024-02-26T00:38:39;51.00;;;32.10;;
51286;SDS011;37364;46.974;18.916;2024-02-26T00:41:12;54.25;;;32.20;;
51286;SDS011;37364;46.974;18.916;2024-02-26T00:43:42;54.67;;;32.45;;
51286;SDS011;37364;46.974;18.916;2024-02-26T00:46:12;49.40;;;32.63;;
51286;SDS011;37364;46.974;18.916;2024-02-26T00:48:42;47.05;;;32.33;;
51286;SDS011;37364;46.974;18.916;2024-02-26T00:51:12;72.82;;;37.97;;
51286;SDS011;37364;46.974;18.916;2024-02-26T00:53:42;50.70;;;31.60;;
51286;SDS011;37364;46.974;18.916;2024-02-26T00:56:15;81.68;;;40.17;;
51286;SDS011;37364;46.974;18.916;2024-02-26T00:58:45;85.90;;;40.55;;
51286;SDS011;37364;46.974;18.916;2024-02-26T01:01:15;69.20;;;36.35;;
51286;SDS011;37364;46.974;18.916;2024-02-26T01:03:45;83.40;;;40.10;;
51286;SDS011;37364;46.974;18.916;2024-02-26T01:06:15;89.28;;;42.58;;
51286;SDS011;37364;46.974;18.916;2024-02-26T01:08:45;80.30;;;40.53;;
51286;SDS011;37364;46.974;18.916;2024-02-26T01:11:17;76.63;;;37.40;;
51286;SDS011;37364;46.974;18.916;2024-02-26T01:13:47;78.95;;;37.42;;
51286;SDS011;37364;46.974;18.916;2024-02-26T01:16:20;78.53;;;38.72;;
51286;SDS011;37364;46.974;18.916;2024-02-26T01:18:50;73.68;;;38.03;;
51286;SDS011;37364;46.974;18.916;2024-02-26T01:21:20;56.25;;;33.90;;
51286;SDS011;37364;46.974;18.916;2024-02-26T01:23:50;47.83;;;27.27;;
51286;SDS011;37364;46.974;18.916;2024-02-26T01:26:22;43.40;;;23.55;;
51286;SDS011;37364;46.974;18.916;2024-02-26T01:28:52;34.78;;;24.83;;
51286;SDS011;37364;46.974;18.916;2024-02-26T01:31:23;34.45;;;23.50;;
51286;SDS011;37364;46.974;18.916;2024-02-26T01:33:53;40.13;;;22.20;;
51286;SDS011;37364;46.974;18.916;2024-02-26T01:36:23;25.55;;;20.98;;
51286;SDS011;37364;46.974;18.916;2024-02-26T01:38:53;38.03;;;22.75;;
51286;SDS011;37364;46.974;18.916;2024-02-26T01:41:26;32.22;;;23.45;;
51286;SDS011;37364;46.974;18.916;2024-02-26T01:43:56;32.47;;;21.67;;
51286;SDS011;37364;46.974;18.916;2024-02-26T01:46:26;31.23;;;23.00;;
51286;SDS011;37364;46.974;18.916;2024-02-26T01:48:56;39.22;;;23.48;;
51286;SDS011;37364;46.974;18.916;2024-02-26T01:51:26;40.10;;;23.92;;
51286;SDS011;37364;46.974;18.916;2024-02-26T01:53:56;35.03;;;22.95;;
51286;SDS011;37364;46.974;18.916;2024-02-26T01:56:30;45.75;;;26.48;;
51286;SDS011;37364;46.974;18.916;2024-02-26T01:59:01;47.00;;;27.65;;
51286;SDS011;37364;46.974;18.916;2024-02-26T02:01:32;37.10;;;22.75;;
51286;SDS011;37364;46.974;18.916;2024-02-26T02:04:03;36.35;;;23.02;;
51286;SDS011;37364;46.974;18.916;2024-02-26T02:06:33;52.83;;;27.48;;
51286;SDS011;37364;46.974;18.916;2024-02-26T02:09:05;67.53;;;32.17;;
51286;SDS011;37364;46.974;18.916;2024-02-26T02:11:39;64.10;;;31.63;;
51286;SDS011;37364;46.974;18.916;2024-02-26T02:16:40;67.10;;;33.55;;
51286;SDS011;37364;46.974;18.916;2024-02-26T02:19:10;72.05;;;34.20;;
51286;SDS011;37364;46.974;18.916;2024-02-26T02:21:43;81.75;;;36.78;;
51286;SDS011;37364;46.974;18.916;2024-02-26T02:24:12;71.25;;;34.33;;
51286;SDS011;37364;46.974;18.916;2024-02-26T02:26:42;72.07;;;34.85;;
51286;SDS011;37364;46.974;18.916;2024-02-26T02:29:12;68.95;;;34.13;;
51286;SDS011;37364;46.974;18.916;2024-02-26T02:31:44;68.68;;;31.55;;
51286;SDS011;37364;46.974;18.916;2024-02-26T02:34:14;56.40;;;29.45;;
51286;SDS011;37364;46.974;18.916;2024-02-26T02:36:54;60.97;;;30.48;;
51286;SDS011;37364;46.974;18.916;2024-02-26T02:39:24;54.78;;;30.75;;
51286;SDS011;37364;46.974;18.916;2024-02-26T02:41:54;53.33;;;28.65;;
51286;SDS011;37364;46.974;18.916;2024-02-26T02:44:24;61.97;;;31.15;;
51286;SDS011;37364;46.974;18.916;2024-02-26T02:46:54;58.35;;;33.63;;
51286;SDS011;37364;46.974;18.916;2024-02-26T02:49:24;49.47;;;27.90;;
51286;SDS011;37364;46.974;18.916;2024-02-26T02:51:57;60.80;;;28.73;;
51286;SDS011;37364;46.974;18.916;2024-02-26T02:54:27;60.95;;;29.85;;
51286;SDS011;37364;46.974;18.916;2024-02-26T02:56:57;54.13;;;28.90;;
51286;SDS011;37364;46.974;18.916;2024-02-26T02:59:27;56.05;;;28.65;;
51286;SDS011;37364;46.974;18.916;2024-02-26T03:01:58;47.47;;;27.27;;
51286;SDS011;37364;46.974;18.916;2024-02-26T03:04:27;56.50;;;31.05;;
51286;SDS011;37364;46.974;18.916;2024-02-26T03:07:01;54.30;;;27.15;;
51286;SDS011;37364;46.974;18.916;2024-02-26T03:09:31;61.60;;;25.75;;
51286;SDS011;37364;46.974;18.916;2024-02-26T03:12:01;54.95;;;28.52;;
51286;SDS011;37364;46.974;18.916;2024-02-26T03:14:31;56.75;;;29.02;;
51286;SDS011;37364;46.974;18.916;2024-02-26T03:17:01;46.15;;;25.85;;
51286;SDS011;37364;46.974;18.916;2024-02-26T03:19:31;44.08;;;24.05;;
51286;SDS011;37364;46.974;18.916;2024-02-26T03:22:04;39.30;;;23.25;;
51286;SDS011;37364;46.974;18.916;2024-02-26T03:24:34;48.45;;;24.98;;
51286;SDS011;37364;46.974;18.916;2024-02-26T03:27:04;41.95;;;21.25;;
51286;SDS011;37364;46.974;18.916;2024-02-26T03:29:36;33.88;;;21.45;;
51286;SDS011;37364;46.974;18.916;2024-02-26T03:32:08;36.38;;;21.17;;
51286;SDS011;37364;46.974;18.916;2024-02-26T03:34:38;30.33;;;21.25;;
51286;SDS011;37364;46.974;18.916;2024-02-26T03:37:11;36.85;;;21.52;;
51286;SDS011;37364;46.974;18.916;2024-02-26T03:39:41;34.72;;;19.85;;
51286;SDS011;37364;46.974;18.916;2024-02-26T03:42:12;37.03;;;19.52;;
51286;SDS011;37364;46.974;18.916;2024-02-26T03:44:43;29.63;;;20.30;;
51286;SDS011;37364;46.974;18.916;2024-02-26T03:47:13;32.65;;;19.58;;
51286;SDS011;37364;46.974;18.916;2024-02-26T03:49:43;31.52;;;19.45;;
51286;SDS011;37364;46.974;18.916;2024-02-26T03:52:15;37.63;;;21.00;;
51286;SDS011;37364;46.974;18.916;2024-02-26T03:54:45;37.17;;;20.77;;
51286;SDS011;37364;46.974;18.916;2024-02-26T03:57:15;42.47;;;22.98;;
51286;SDS011;37364;46.974;18.916;2024-02-26T03:59:48;38.30;;;21.63;;
51286;SDS011;37364;46.974;18.916;2024-02-26T04:02:18;33.65;;;21.38;;
51286;SDS011;37364;46.974;18.916;2024-02-26T04:04:49;31.83;;;21.25;;
51286;SDS011;37364;46.974;18.916;2024-02-26T04:07:22;38.13;;;21.92;;
51286;SDS011;37364;46.974;18.916;2024-02-26T04:09:52;34.70;;;21.50;;
51286;SDS011;37364;46.974;18.916;2024-02-26T04:12:22;32.15;;;20.88;;
51286;SDS011;37364;46.974;18.916;2024-02-26T04:14:52;32.83;;;22.55;;
51286;SDS011;37364;46.974;18.916;2024-02-26T04:17:22;44.30;;;21.40;;
51286;SDS011;37364;46.974;18.916;2024-02-26T04:19:53;38.15;;;24.48;;
51286;SDS011;37364;46.974;18.916;2024-02-26T04:22:26;40.15;;;23.40;;
51286;SDS011;37364;46.974;18.916;2024-02-26T04:24:56;48.03;;;23.27;;
51286;SDS011;37364;46.974;18.916;2024-02-26T04:27:25;37.10;;;20.20;;
51286;SDS011;37364;46.974;18.916;2024-02-26T04:29:55;41.65;;;26.02;;
51286;SDS011;37364;46.974;18.916;2024-02-26T04:32:25;42.55;;;24.50;;
51286;SDS011;37364;46.974;18.916;2024-02-26T04:34:55;67.80;;;30.90;;
51286;SDS011;37364;46.974;18.916;2024-02-26T04:37:29;44.63;;;27.63;;
51286;SDS011;37364;46.974;18.916;2024-02-26T04:39:59;44.72;;;23.33;;
51286;SDS011;37364;46.974;18.916;2024-02-26T04:42:31;47.08;;;22.08;;
51286;SDS011;37364;46.974;18.916;2024-02-26T04:45:01;38.97;;;22.05;;
51286;SDS011;37364;46.974;18.916;2024-02-26T04:47:31;38.15;;;19.83;;
51286;SDS011;37364;46.974;18.916;2024-02-26T04:50:01;33.97;;;19.90;;
51286;SDS011;37364;46.974;18.916;2024-02-26T04:52:33;47.88;;;22.85;;
51286;SDS011;37364;46.974;18.916;2024-02-26T04:55:04;35.88;;;22.20;;
51286;SDS011;37364;46.974;18.916;2024-02-26T04:57:34;41.30;;;22.35;;
51286;SDS011;37364;46.974;18.916;2024-02-26T05:00:04;54.10;;;23.63;;
51286;SDS011;37364;46.974;18.916;2024-02-26T05:02:36;45.03;;;22.13;;
51286;SDS011;37364;46.974;18.916;2024-02-26T05:05:07;56.78;;;26.75;;
51286;SDS011;37364;46.974;18.916;2024-02-26T05:07:42;39.80;;;22.00;;
51286;SDS011;37364;46.974;18.916;2024-02-26T05:10:12;50.80;;;23.17;;
51286;SDS011;37364;46.974;18.916;2024-02-26T05:12:42;34.05;;;21.50;;
51286;SDS011;37364;46.974;18.916;2024-02-26T05:15:13;31.33;;;21.30;;
51286;SDS011;37364;46.974;18.916;2024-02-26T05:17:45;30.42;;;21.20;;
51286;SDS011;37364;46.974;18.916;2024-02-26T05:20:15;28.55;;;22.65;;
51286;SDS011;37364;46.974;18.916;2024-02-26T05:22:47;47.42;;;25.70;;
51286;SDS011;37364;46.974;18.916;2024-02-26T05:25:17;49.17;;;27.30;;
51286;SDS011;37364;46.974;18.916;2024-02-26T05:27:47;60.85;;;30.08;;
51286;SDS011;37364;46.974;18.916;2024-02-26T05:30:17;52.60;;;25.27;;
51286;SDS011;37364;46.974;18.916;2024-02-26T05:32:48;40.00;;;24.65;;
51286;SDS011;37364;46.974;18.916;2024-02-26T05:35:18;29.83;;;21.25;;
51286;SDS011;37364;46.974;18.916;2024-02-26T05:37:50;37.63;;;21.83;;
51286;SDS011;37364;46.974;18.916;2024-02-26T05:40:20;28.38;;;19.65;;
51286;SDS011;37364;46.974;18.916;2024-02-26T05:42:48;31.40;;;19.45;;
51286;SDS011;37364;46.974;18.916;2024-02-26T05:45:18;23.63;;;17.40;;
51286;SDS011;37364;46.974;18.916;2024-02-26T05:47:55;22.42;;;16.48;;
51286;SDS011;37364;46.974;18.916;2024-02-26T05:50:25;27.00;;;18.58;;
51286;SDS011;37364;46.974;18.916;2024-02-26T05:52:58;22.00;;;16.65;;
51286;SDS011;37364;46.974;18.916;2024-02-26T05:55:28;26.25;;;17.77;;
51286;SDS011;37364;46.974;18.916;2024-02-26T05:57:58;23.25;;;17.35;;
51286;SDS011;37364;46.974;18.916;2024-02-26T06:00:28;24.02;;;16.88;;
51286;SDS011;37364;46.974;18.916;2024-02-26T06:02:59;31.92;;;17.58;;
51286;SDS011;37364;46.974;18.916;2024-02-26T06:05:29;27.48;;;20.15;;
51286;SDS011;37364;46.974;18.916;2024-02-26T06:08:01;28.50;;;20.23;;
51286;SDS011;37364;46.974;18.916;2024-02-26T06:10:33;27.20;;;20.00;;
51286;SDS011;37364;46.974;18.916;2024-02-26T06:13:03;26.30;;;18.52;;
51286;SDS011;37364;46.974;18.916;2024-02-26T06:15:33;37.47;;;20.75;;
51286;SDS011;37364;46.974;18.916;2024-02-26T06:18:04;30.00;;;18.45;;
51286;SDS011;37364;46.974;18.916;2024-02-26T06:20:35;27.80;;;18.63;;
51286;SDS011;37364;46.974;18.916;2024-02-26T06:23:07;27.20;;;17.88;;
51286;SDS011;37364;46.974;18.916;2024-02-26T06:25:37;26.05;;;17.30;;
51286;SDS011;37364;46.974;18.916;2024-02-26T06:28:09;22.33;;;16.67;;
51286;SDS011;37364;46.974;18.916;2024-02-26T06:30:39;22.30;;;16.23;;
51286;SDS011;37364;46.974;18.916;2024-02-26T06:33:10;20.92;;;15.85;;
51286;SDS011;37364;46.974;18.916;2024-02-26T06:35:41;24.50;;;15.98;;
51286;SDS011;37364;46.974;18.916;2024-02-26T06:38:13;23.13;;;16.17;;
51286;SDS011;37364;46.974;18.916;2024-02-26T06:40:45;19.55;;;14.40;;
51286;SDS011;37364;46.974;18.916;2024-02-26T06:43:16;20.58;;;13.98;;
51286;SDS011;37364;46.974;18.916;2024-02-26T06:45:49;18.80;;;14.45;;
51286;SDS011;37364;46.974;18.916;2024-02-26T06:48:22;14.85;;;12.95;;
51286;SDS011;37364;46.974;18.916;2024-02-26T06:50:53;22.05;;;15.40;;
51286;SDS011;37364;46.974;18.916;2024-02-26T06:53:25;24.00;;;14.50;;
51286;SDS011;37364;46.974;18.916;2024-02-26T06:55:55;19.98;;;15.27;;
51286;SDS011;37364;46.974;18.916;2024-02-26T06:58:25;19.80;;;15.30;;
51286;SDS011;37364;46.974;18.916;2024-02-26T07:00:55;22.08;;;14.65;;
51286;SDS011;37364;46.974;18.916;2024-02-26T07:03:26;18.60;;;14.35;;
51286;SDS011;37364;46.974;18.916;2024-02-26T07:05:57;19.50;;;14.85;;
51286;SDS011;37364;46.974;18.916;2024-02-26T07:08:30;22.20;;;14.80;;
51286;SDS011;37364;46.974;18.916;2024-02-26T07:11:00;21.92;;;14.45;;
51286;SDS011;37364;46.974;18.916;2024-02-26T07:13:30;20.25;;;16.83;;
51286;SDS011;37364;46.974;18.916;2024-02-26T07:16:00;25.77;;;18.02;;
51286;SDS011;37364;46.974;18.916;2024-02-26T07:18:30;30.92;;;20.88;;
51286;SDS011;37364;46.974;18.916;2024-02-26T07:21:01;25.80;;;17.67;;
51286;SDS011;37364;46.974;18.916;2024-02-26T07:23:34;22.65;;;16.63;;
51286;SDS011;37364;46.974;18.916;2024-02-26T07:26:04;25.83;;;16.70;;
51286;SDS011;37364;46.974;18.916;2024-02-26T07:28:35;21.23;;;17.52;;
51286;SDS011;37364;46.974;18.916;2024-02-26T07:31:04;22.75;;;17.23;;
51286;SDS011;37364;46.974;18.916;2024-02-26T07:33:37;30.90;;;19.52;;
51286;SDS011;37364;46.974;18.916;2024-02-26T07:36:07;24.35;;;15.85;;
51286;SDS011;37364;46.974;18.916;2024-02-26T07:38:41;20.27;;;15.35;;
51286;SDS011;37364;46.974;18.916;2024-02-26T07:41:12;19.73;;;13.30;;
51286;SDS011;37364;46.974;18.916;2024-02-26T07:43:42;21.90;;;14.95;;
51286;SDS011;37364;46.974;18.916;2024-02-26T07:46:12;16.52;;;14.00;;
51286;SDS011;37364;46.974;18.916;2024-02-26T07:48:42;20.00;;;13.10;;
51286;SDS011;37364;46.974;18.916;2024-02-26T07:51:13;17.33;;;12.55;;
51286;SDS011;37364;46.974;18.916;2024-02-26T07:53:46;19.88;;;13.25;;
51286;SDS011;37364;46.974;18.916;2024-02-26T07:56:18;25.98;;;12.70;;
51286;SDS011;37364;46.974;18.916;2024-02-26T07:58:48;18.48;;;10.85;;
51286;SDS011;37364;46.974;18.916;2024-02-26T08:01:18;18.25;;;12.02;;
51286;SDS011;37364;46.974;18.916;2024-02-26T08:03:48;15.20;;;10.38;;
51286;SDS011;37364;46.974;18.916;2024-02-26T08:06:20;23.60;;;12.63;;
51286;SDS011;37364;46.974;18.916;2024-02-26T08:08:55;19.58;;;12.75;;
51286;SDS011;37364;46.974;18.916;2024-02-26T08:11:25;17.70;;;11.60;;
51286;SDS011;37364;46.974;18.916;2024-02-26T08:13:56;25.60;;;14.57;;
51286;SDS011;37364;46.974;18.916;2024-02-26T08:16:25;17.52;;;13.15;;
51286;SDS011;37364;46.974;18.916;2024-02-26T08:18:58;25.23;;;13.40;;
51286;SDS011;37364;46.974;18.916;2024-02-26T08:21:28;17.05;;;12.68;;
51286;SDS011;37364;46.974;18.916;2024-02-26T08:24:01;19.00;;;14.02;;
51286;SDS011;37364;46.974;18.916;2024-02-26T08:26:31;21.58;;;15.27;;
51286;SDS011;37364;46.974;18.916;2024-02-26T08:29:01;26.60;;;16.77;;
51286;SDS011;37364;46.974;18.916;2024-02-26T08:31:31;23.08;;;15.57;;
51286;SDS011;37364;46.974;18.916;2024-02-26T08:34:04;24.55;;;15.43;;
51286;SDS011;37364;46.974;18.916;2024-02-26T08:36:34;22.70;;;16.15;;
51286;SDS011;37364;46.974;18.916;2024-02-26T08:39:07;30.80;;;16.67;;
51286;SDS011;37364;46.974;18.916;2024-02-26T08:41:40;22.00;;;15.52;;
51286;SDS011;37364;46.974;18.916;2024-02-26T08:44:10;23.77;;;14.07;;
51286;SDS011;37364;46.974;18.916;2024-02-26T08:46:40;16.50;;;13.45;;
51286;SDS011;37364;46.974;18.916;2024-02-26T08:49:10;24.40;;;14.52;;
51286;SDS011;37364;46.974;18.916;2024-02-26T08:51:41;25.08;;;14.75;;
51286;SDS011;37364;46.974;18.916;2024-02-26T08:54:14;21.83;;;13.52;;
51286;SDS011;37364;46.974;18.916;2024-02-26T08:56:44;21.43;;;14.77;;
51286;SDS011;37364;46.974;18.916;2024-02-26T08:59:14;26.75;;;17.13;;
51286;SDS011;37364;46.974;18.916;2024-02-26T09:01:49;22.50;;;15.30;;
51286;SDS011;37364;46.974;18.916;2024-02-26T09:04:19;26.00;;;16.35;;
51286;SDS011;37364;46.974;18.916;2024-02-26T09:06:49;22.30;;;15.25;;
51286;SDS011;37364;46.974;18.916;2024-02-26T09:09:21;21.88;;;14.15;;
51286;SDS011;37364;46.974;18.916;2024-02-26T09:11:53;25.52;;;16.35;;
51286;SDS011;37364;46.974;18.916;2024-02-26T09:14:23;23.35;;;14.98;;
51286;SDS011;37364;46.974;18.916;2024-02-26T09:16:54;16.15;;;12.45;;
51286;SDS011;37364;46.974;18.916;2024-02-26T09:19:26;17.02;;;13.13;;
51286;SDS011;37364;46.974;18.916;2024-02-26T09:21:57;18.05;;;12.13;;
51286;SDS011;37364;46.974;18.916;2024-02-26T09:24:29;17.20;;;11.93;;
51286;SDS011;37364;46.974;18.916;2024-02-26T09:27:00;14.07;;;11.65;;
51286;SDS011;37364;46.974;18.916;2024-02-26T09:29:30;13.82;;;12.20;;
51286;SDS011;37364;46.974;18.916;2024-02-26T09:32:00;18.08;;;11.05;;
51286;SDS011;37364;46.974;18.916;2024-02-26T09:34:30;17.45;;;10.63;;
51286;SDS011;37364;46.974;18.916;2024-02-26T09:37:00;22.80;;;13.60;;
51286;SDS011;37364;46.974;18.916;2024-02-26T09:39:46;15.55;;;12.02;;
51286;SDS011;37364;46.974;18.916;2024-02-26T09:42:17;13.60;;;10.33;;
51286;SDS011;37364;46.974;18.916;2024-02-26T09:44:49;14.77;;;10.48;;
51286;SDS011;37364;46.974;18.916;2024-02-26T09:47:24;12.90;;;10.07;;
51286;SDS011;37364;46.974;18.916;2024-02-26T09:49:56;11.50;;;9.60;;
51286;SDS011;37364;46.974;18.916;2024-02-26T09:52:26;11.75;;;10.52;;
51286;SDS011;37364;46.974;18.916;2024-02-26T09:55:00;18.05;;;12.65;;
51286;SDS011;37364;46.974;18.916;2024-02-26T09:57:30;10.98;;;9.18;;
51286;SDS011;37364;46.974;18.916;2024-02-26T10:00:02;12.57;;;9.55;;
51286;SDS011;37364;46.974;18.916;2024-02-26T10:02:34;9.98;;;8.50;;
51286;SDS011;37364;46.974;18.916;2024-02-26T10:05:07;9.35;;;7.65;;
51286;SDS011;37364;46.974;18.916;2024-02-26T10:07:39;9.52;;;8.07;;
51286;SDS011;37364;46.974;18.916;2024-02-26T10:10:14;15.40;;;7.03;;
51286;SDS011;37364;46.974;18.916;2024-02-26T10:12:44;9.35;;;7.25;;
51286;SDS011;37364;46.974;18.916;2024-02-26T10:15:14;9.95;;;8.18;;
51286;SDS011;37364;46.974;18.916;2024-02-26T10:17:45;10.00;;;8.00;;
51286;SDS011;37364;46.974;18.916;2024-02-26T10:20:16;9.13;;;6.60;;
51286;SDS011;37364;46.974;18.916;2024-02-26T10:22:49;10.20;;;6.75;;
51286;SDS011;37364;46.974;18.916;2024-02-26T10:25:21;10.82;;;6.68;;
51286;SDS011;37364;46.974;18.916;2024-02-26T10:27:51;12.40;;;7.43;;
51286;SDS011;37364;46.974;18.916;2024-02-26T10:30:23;12.93;;;7.40;;
51286;SDS011;37364;46.974;18.916;2024-02-26T10:32:55;9.35;;;6.75;;
51286;SDS011;37364;46.974;18.916;2024-02-26T10:35:27;11.38;;;7.15;;
51286;SDS011;37364;46.974;18.916;2024-02-26T10:37:58;8.05;;;7.10;;
51286;SDS011;37364;46.974;18.916;2024-02-26T10:40:30;11.10;;;7.97;;
51286;SDS011;37364;46.974;18.916;2024-02-26T10:43:00;9.93;;;6.80;;
51286;SDS011;37364;46.974;18.916;2024-02-26T10:45:31;15.30;;;6.90;;
51286;SDS011;37364;46.974;18.916;2024-02-26T10:48:04;9.23;;;7.15;;
51286;SDS011;37364;46.974;18.916;2024-02-26T10:50:39;8.23;;;6.47;;
51286;SDS011;37364;46.974;18.916;2024-02-26T10:53:12;15.60;;;7.18;;
51286;SDS011;37364;46.974;18.916;2024-02-26T10:55:52;15.50;;;7.68;;
51286;SDS011;37364;46.974;18.916;2024-02-26T10:58:24;10.27;;;5.97;;
51286;SDS011;37364;46.974;18.916;2024-02-26T11:00:55;7.68;;;5.90;;
51286;SDS011;37364;46.974;18.916;2024-02-26T11:03:27;10.18;;;6.32;;
51286;SDS011;37364;46.974;18.916;2024-02-26T11:06:01;7.20;;;5.25;;
51286;SDS011;37364;46.974;18.916;2024-02-26T11:08:34;9.57;;;6.30;;
51286;SDS011;37364;46.974;18.916;2024-02-26T11:11:07;9.23;;;6.20;;
51286;SDS011;37364;46.974;18.916;2024-02-26T11:13:42;10.57;;;6.55;;
51286;SDS011;37364;46.974;18.916;2024-02-26T11:16:16;6.03;;;4.45;;
51286;SDS011;37364;46.974;18.916;2024-02-26T11:18:48;7.78;;;5.75;;
51286;SDS011;37364;46.974;18.916;2024-02-26T11:21:19;7.75;;;6.47;;
51286;SDS011;37364;46.974;18.916;2024-02-26T11:23:57;6.28;;;5.53;;
51286;SDS011;37364;46.974;18.916;2024-02-26T11:26:30;8.13;;;5.63;;
51286;SDS011;37364;46.974;18.916;2024-02-26T11:29:01;9.60;;;5.30;;
51286;SDS011;37364;46.974;18.916;2024-02-26T11:31:32;11.38;;;5.68;;
51286;SDS011;37364;46.974;18.916;2024-02-26T11:34:03;9.93;;;6.10;;
51286;SDS011;37364;46.974;18.916;2024-02-26T11:36:33;9.32;;;6.15;;
51286;SDS011;37364;46.974;18.916;2024-02-26T11:39:03;8.20;;;6.75;;
51286;SDS011;37364;46.974;18.916;2024-02-26T11:41:36;16.25;;;7.45;;
51286;SDS011;37364;46.974;18.916;2024-02-26T11:44:08;9.35;;;6.00;;
51286;SDS011;37364;46.974;18.916;2024-02-26T11:46:38;7.97;;;6.30;;
51286;SDS011;37364;46.974;18.916;2024-02-26T11:52:04;11.57;;;7.10;;
51286;SDS011;37364;46.974;18.916;2024-02-26T11:57:29;11.68;;;7.47;;
51286;SDS011;37364;46.974;18.916;2024-02-26T12:00:10;8.27;;;6.07;;
51286;SDS011;37364;46.974;18.916;2024-02-26T12:02:46;12.82;;;7.50;;
51286;SDS011;37364;46.974;18.916;2024-02-26T12:05:25;15.57;;;6.68;;
51286;SDS011;37364;46.974;18.916;2024-02-26T12:07:59;7.68;;;6.22;;
51286;SDS011;37364;46.974;18.916;2024-02-26T12:10:35;7.95;;;5.30;;
51286;SDS011;37364;46.974;18.916;2024-02-26T12:13:10;7.90;;;7.03;;
51286;SDS011;37364;46.974;18.916;2024-02-26T12:15:46;7.05;;;5.95;;
51286;SDS011;37364;46.974;18.916;2024-02-26T12:18:27;8.30;;;6.35;;
51286;SDS011;37364;46.974;18.916;2024-02-26T12:20:59;7.90;;;6.97;;
51286;SDS011;37364;46.974;18.916;2024-02-26T12:23:31;8.20;;;7.40;;
51286;SDS011;37364;46.974;18.916;2024-02-26T12:26:01;6.97;;;6.07;;
51286;SDS011;37364;46.974;18.916;2024-02-26T12:31:07;8.25;;;7.45;;
51286;SDS011;37364;46.974;18.916;2024-02-26T12:33:37;7.40;;;6.25;;
51286;SDS011;37364;46.974;18.916;2024-02-26T12:36:08;9.30;;;6.13;;
51286;SDS011;37364;46.974;18.916;2024-02-26T12:38:35;11.30;;;6.32;;
51286;SDS011;37364;46.974;18.916;2024-02-26T12:41:05;15.00;;;8.02;;
51286;SDS011;37364;46.974;18.916;2024-02-26T12:43:38;9.20;;;6.28;;
51286;SDS011;37364;46.974;18.916;2024-02-26T12:46:09;10.90;;;5.70;;
51286;SDS011;37364;46.974;18.916;2024-02-26T12:48:42;6.25;;;5.38;;
51286;SDS011;37364;46.974;18.916;2024-02-26T12:51:14;7.05;;;5.00;;
51286;SDS011;37364;46.974;18.916;2024-02-26T12:53:45;7.10;;;5.20;;
51286;SDS011;37364;46.974;18.916;2024-02-26T12:56:16;12.10;;;6.43;;
51286;SDS011;37364;46.974;18.916;2024-02-26T12:58:51;6.78;;;5.57;;
51286;SDS011;37364;46.974;18.916;2024-02-26T13:01:23;8.93;;;5.38;;
51286;SDS011;37364;46.974;18.916;2024-02-26T13:03:54;6.28;;;5.50;;
51286;SDS011;37364;46.974;18.916;2024-02-26T13:06:27;13.13;;;4.43;;
51286;SDS011;37364;46.974;18.916;2024-02-26T13:08:58;8.27;;;4.68;;
51286;SDS011;37364;46.974;18.916;2024-02-26T13:11:29;7.75;;;5.90;;
51286;SDS011;37364;46.974;18.916;2024-02-26T13:14:02;7.50;;;6.40;;
51286;SDS011;37364;46.974;18.916;2024-02-26T13:16:34;8.52;;;7.15;;
51286;SDS011;37364;46.974;18.916;2024-02-26T13:19:08;11.10;;;7.00;;
51286;SDS011;37364;46.974;18.916;2024-02-26T13:24:08;10.00;;;7.20;;
51286;SDS011;37364;46.974;18.916;2024-02-26T13:29:19;9.00;;;8.07;;
51286;SDS011;37364;46.974;18.916;2024-02-26T13:31:53;15.35;;;8.65;;
51286;SDS011;37364;46.974;18.916;2024-02-26T13:34:23;11.45;;;7.55;;
51286;SDS011;37364;46.974;18.916;2024-02-26T13:36:55;10.32;;;7.60;;
51286;SDS011;37364;46.974;18.916;2024-02-26T13:39:26;10.88;;;7.70;;
51286;SDS011;37364;46.974;18.916;2024-02-26T13:41:57;10.63;;;8.35;;
51286;SDS011;37364;46.974;18.916;2024-02-26T13:44:30;16.60;;;8.65;;
51286;SDS011;37364;46.974;18.916;2024-02-26T13:47:03;9.85;;;7.93;;
51286;SDS011;37364;46.974;18.916;2024-02-26T13:49:33;12.10;;;9.70;;
51286;SDS011;37364;46.974;18.916;2024-02-26T13:52:04;17.05;;;12.70;;
51286;SDS011;37364;46.974;18.916;2024-02-26T13:54:34;33.15;;;18.77;;
51286;SDS011;37364;46.974;18.916;2024-02-26T13:57:05;16.65;;;11.70;;
51286;SDS011;37364;46.974;18.916;2024-02-26T13:59:38;13.68;;;12.18;;
51286;SDS011;37364;46.974;18.916;2024-02-26T14:02:09;14.43;;;9.55;;
51286;SDS011;37364;46.974;18.916;2024-02-26T14:04:39;10.20;;;8.85;;
51286;SDS011;37364;46.974;18.916;2024-02-26T14:07:09;20.20;;;9.23;;
51286;SDS011;37364;46.974;18.916;2024-02-26T14:09:41;17.80;;;8.70;;
51286;SDS011;37364;46.974;18.916;2024-02-26T14:12:16;7.40;;;6.80;;
51286;SDS011;37364;46.974;18.916;2024-02-26T14:14:53;13.70;;;10.25;;
51286;SDS011;37364;46.974;18.916;2024-02-26T14:19:53;26.77;;;12.10;;
51286;SDS011;37364;46.974;18.916;2024-02-26T14:22:24;35.80;;;15.88;;
51286;SDS011;37364;46.974;18.916;2024-02-26T14:24:57;34.25;;;16.17;;
51286;SDS011;37364;46.974;18.916;2024-02-26T14:27:27;45.65;;;22.02;;
51286;SDS011;37364;46.974;18.916;2024-02-26T14:30:00;24.70;;;14.15;;
51286;SDS011;37364;46.974;18.916;2024-02-26T14:32:31;20.45;;;12.05;;
51286;SDS011;37364;46.974;18.916;2024-02-26T14:35:05;13.18;;;7.97;;
51286;SDS011;37364;46.974;18.916;2024-02-26T14:37:42;10.82;;;8.23;;
51286;SDS011;37364;46.974;18.916;2024-02-26T14:40:14;12.05;;;8.77;;
51286;SDS011;37364;46.974;18.916;2024-02-26T14:42:48;17.45;;;9.32;;
51286;SDS011;37364;46.974;18.916;2024-02-26T14:45:21;15.18;;;9.32;;
51286;SDS011;37364;46.974;18.916;2024-02-26T14:47:57;13.50;;;8.77;;
51286;SDS011;37364;46.974;18.916;2024-02-26T14:50:27;18.75;;;10.85;;
51286;SDS011;37364;46.974;18.916;2024-02-26T14:52:57;22.75;;;10.13;;
51286;SDS011;37364;46.974;18.916;2024-02-26T14:55:29;15.85;;;10.07;;